Terminal Aerodrome Forecast
Issued by NWS

Home | Current Version | Previous Version | Text Only | Print | Product List | Glossary On
Versions: 1 2 3 4 5 6 7 8 9 10 11 12 13 14 15 16
058
FTUS46 KSGX 271134
TAFCRQ
TAF
KCRQ 271134Z 2712/2812 09006KT 4SM -RA BR SCT006 OVC015
      TEMPO 2712/2716 2SM -RA BR SCT015 OVC025
     FM271900 19012KT P6SM RA OVC015
     FM280100 22007KT P6SM -SHRA SCT015 OVC025
     FM280400 25006KT P6SM VCSH SCT015 BKN025
     FM280700 28007KT P6SM SCT015 BKN025=

USA.gov is the U.S. government's official web portal to all federal, state and local government web resources and services.